sensor_id;sensor_type;location;lat;lon;timestamp;pressure;altitude;pressure_sealevel;temperature;humidity
75438;BME280;64015;49.392;15.582;2023-07-16T00:01:03;95325.41;;;21.29;99.54
75438;BME280;64015;49.392;15.582;2023-07-16T00:03:49;95322.13;;;21.20;100.00
75438;BME280;64015;49.392;15.582;2023-07-16T00:06:15;95316.09;;;21.11;100.00
75438;BME280;64015;49.392;15.582;2023-07-16T00:08:40;95318.09;;;21.14;100.00
75438;BME280;64015;49.392;15.582;2023-07-16T00:11:06;95323.75;;;21.25;100.00
75438;BME280;64015;49.392;15.582;2023-07-16T00:13:32;95327.28;;;21.13;100.00
75438;BME280;64015;49.392;15.582;2023-07-16T00:15:57;95325.97;;;21.07;100.00
75438;BME280;64015;49.392;15.582;2023-07-16T00:18:23;95323.00;;;20.96;100.00
75438;BME280;64015;49.392;15.582;2023-07-16T00:20:49;95330.06;;;20.89;100.00
75438;BME280;64015;49.392;15.582;2023-07-16T00:23:14;95324.97;;;20.83;100.00
75438;BME280;64015;49.392;15.582;2023-07-16T00:25:40;95319.78;;;20.75;100.00
75438;BME280;64015;49.392;15.582;2023-07-16T00:28:06;95325.53;;;20.77;100.00
75438;BME280;64015;49.392;15.582;2023-07-16T00:30:31;95322.22;;;20.68;100.00
75438;BME280;64015;49.392;15.582;2023-07-16T00:32:57;95323.50;;;20.58;100.00
75438;BME280;64015;49.392;15.582;2023-07-16T00:35:23;95327.09;;;20.50;100.00
75438;BME280;64015;49.392;15.582;2023-07-16T00:37:48;95334.28;;;20.34;100.00
75438;BME280;64015;49.392;15.582;2023-07-16T00:40:14;95321.56;;;20.43;100.00
75438;BME280;64015;49.392;15.582;2023-07-16T00:42:39;95328.41;;;20.28;100.00
75438;BME280;64015;49.392;15.582;2023-07-16T00:45:11;95333.19;;;20.23;100.00
75438;BME280;64015;49.392;15.582;2023-07-16T00:47:37;95329.88;;;20.13;100.00
75438;BME280;64015;49.392;15.582;2023-07-16T00:50:03;95327.75;;;20.07;100.00
75438;BME280;64015;49.392;15.582;2023-07-16T00:52:29;95328.09;;;20.05;100.00
75438;BME280;64015;49.392;15.582;2023-07-16T00:54:55;95322.53;;;19.98;100.00
75438;BME280;64015;49.392;15.582;2023-07-16T00:57:20;95313.19;;;19.92;100.00
75438;BME280;64015;49.392;15.582;2023-07-16T00:59:46;95322.22;;;19.88;100.00
75438;BME280;64015;49.392;15.582;2023-07-16T01:02:11;95325.22;;;19.86;100.00
75438;BME280;64015;49.392;15.582;2023-07-16T01:04:38;95324.22;;;19.79;100.00
75438;BME280;64015;49.392;15.582;2023-07-16T01:07:06;95327.56;;;19.75;100.00
75438;BME280;64015;49.392;15.582;2023-07-16T01:09:34;95323.25;;;19.71;100.00
75438;BME280;64015;49.392;15.582;2023-07-16T01:12:03;95320.78;;;19.66;100.00
75438;BME280;64015;49.392;15.582;2023-07-16T01:14:30;95326.13;;;19.66;100.00
75438;BME280;64015;49.392;15.582;2023-07-16T01:16:56;95324.56;;;19.65;100.00
75438;BME280;64015;49.392;15.582;2023-07-16T01:19:25;95315.66;;;19.61;100.00
75438;BME280;64015;49.392;15.582;2023-07-16T01:30:20;95314.72;;;19.32;100.00
75438;BME280;64015;49.392;15.582;2023-07-16T01:32:46;95311.59;;;19.30;100.00
75438;BME280;64015;49.392;15.582;2023-07-16T01:35:14;95308.91;;;19.30;100.00
75438;BME280;64015;49.392;15.582;2023-07-16T01:37:41;95305.25;;;19.23;100.00
75438;BME280;64015;49.392;15.582;2023-07-16T01:40:08;95306.91;;;19.15;100.00
75438;BME280;64015;49.392;15.582;2023-07-16T01:42:34;95310.88;;;19.09;100.00
75438;BME280;64015;49.392;15.582;2023-07-16T01:45:00;95313.91;;;19.08;100.00
75438;BME280;64015;49.392;15.582;2023-07-16T01:49:58;95314.25;;;19.06;100.00
75438;BME280;64015;49.392;15.582;2023-07-16T01:52:23;95308.13;;;19.06;100.00
75438;BME280;64015;49.392;15.582;2023-07-16T01:54:49;95306.44;;;19.01;100.00
75438;BME280;64015;49.392;15.582;2023-07-16T01:57:14;95309.78;;;18.98;100.00
75438;BME280;64015;49.392;15.582;2023-07-16T01:59:40;95316.22;;;18.97;100.00
75438;BME280;64015;49.392;15.582;2023-07-16T02:02:06;95322.03;;;18.99;100.00
75438;BME280;64015;49.392;15.582;2023-07-16T02:04:32;95325.50;;;18.99;100.00
75438;BME280;64015;49.392;15.582;2023-07-16T02:06:57;95341.63;;;19.03;100.00
75438;BME280;64015;49.392;15.582;2023-07-16T02:09:23;95334.44;;;19.16;100.00
75438;BME280;64015;49.392;15.582;2023-07-16T02:11:48;95337.19;;;19.07;100.00
75438;BME280;64015;49.392;15.582;2023-07-16T02:14:14;95334.41;;;19.04;100.00
75438;BME280;64015;49.392;15.582;2023-07-16T02:16:41;95336.19;;;18.99;100.00
75438;BME280;64015;49.392;15.582;2023-07-16T02:19:07;95333.84;;;18.98;100.00
75438;BME280;64015;49.392;15.582;2023-07-16T02:21:32;95337.38;;;18.90;100.00
75438;BME280;64015;49.392;15.582;2023-07-16T02:23:59;95334.25;;;18.88;100.00
75438;BME280;64015;49.392;15.582;2023-07-16T02:26:25;95340.91;;;18.82;100.00
75438;BME280;64015;49.392;15.582;2023-07-16T02:28:51;95342.47;;;18.83;100.00
75438;BME280;64015;49.392;15.582;2023-07-16T02:31:16;95334.66;;;18.78;100.00
75438;BME280;64015;49.392;15.582;2023-07-16T02:33:42;95341.97;;;18.69;100.00
75438;BME280;64015;49.392;15.582;2023-07-16T02:36:08;95344.84;;;18.63;100.00
75438;BME280;64015;49.392;15.582;2023-07-16T02:38:34;95339.53;;;18.55;100.00
75438;BME280;64015;49.392;15.582;2023-07-16T02:40:59;95348.88;;;18.49;100.00
75438;BME280;64015;49.392;15.582;2023-07-16T02:43:25;95354.06;;;18.45;100.00
75438;BME280;64015;49.392;15.582;2023-07-16T02:45:50;95358.31;;;18.46;100.00
75438;BME280;64015;49.392;15.582;2023-07-16T02:48:16;95358.31;;;18.46;100.00
75438;BME280;64015;49.392;15.582;2023-07-16T02:50:42;95367.25;;;18.50;100.00
75438;BME280;64015;49.392;15.582;2023-07-16T02:53:08;95360.88;;;18.43;100.00
75438;BME280;64015;49.392;15.582;2023-07-16T02:55:36;95363.72;;;18.38;100.00
75438;BME280;64015;49.392;15.582;2023-07-16T02:58:02;95365.44;;;18.42;100.00
75438;BME280;64015;49.392;15.582;2023-07-16T03:00:31;95375.97;;;18.39;100.00
75438;BME280;64015;49.392;15.582;2023-07-16T03:02:57;95387.13;;;18.41;100.00
75438;BME280;64015;49.392;15.582;2023-07-16T03:05:25;95420.81;;;18.75;100.00
75438;BME280;64015;49.392;15.582;2023-07-16T03:07:51;95472.56;;;18.91;100.00
75438;BME280;64015;49.392;15.582;2023-07-16T03:10:16;95512.41;;;19.25;100.00
75438;BME280;64015;49.392;15.582;2023-07-16T03:12:42;95506.56;;;19.44;100.00
75438;BME280;64015;49.392;15.582;2023-07-16T03:15:08;95492.22;;;19.49;100.00
75438;BME280;64015;49.392;15.582;2023-07-16T03:17:34;95501.97;;;19.65;100.00
75438;BME280;64015;49.392;15.582;2023-07-16T03:20:00;95529.56;;;19.90;100.00
75438;BME280;64015;49.392;15.582;2023-07-16T03:22:25;95531.59;;;20.05;100.00
75438;BME280;64015;49.392;15.582;2023-07-16T03:24:52;95522.59;;;20.10;100.00
75438;BME280;64015;49.392;15.582;2023-07-16T03:27:17;95525.16;;;20.19;100.00
75438;BME280;64015;49.392;15.582;2023-07-16T03:29:43;95553.81;;;20.30;100.00
75438;BME280;64015;49.392;15.582;2023-07-16T03:32:09;95544.84;;;20.35;100.00
75438;BME280;64015;49.392;15.582;2023-07-16T03:34:34;95533.22;;;20.43;100.00
75438;BME280;64015;49.392;15.582;2023-07-16T03:37:00;95584.13;;;20.43;100.00
75438;BME280;64015;49.392;15.582;2023-07-16T03:39:26;95565.59;;;20.62;100.00
75438;BME280;64015;49.392;15.582;2023-07-16T03:41:51;95531.66;;;20.66;100.00
75438;BME280;64015;49.392;15.582;2023-07-16T03:44:17;95536.00;;;20.71;100.00
75438;BME280;64015;49.392;15.582;2023-07-16T03:46:43;95522.72;;;20.62;100.00
75438;BME280;64015;49.392;15.582;2023-07-16T03:49:08;95539.13;;;20.61;100.00
75438;BME280;64015;49.392;15.582;2023-07-16T03:51:34;95539.03;;;20.57;100.00
75438;BME280;64015;49.392;15.582;2023-07-16T03:54:00;95531.00;;;20.57;100.00
75438;BME280;64015;49.392;15.582;2023-07-16T03:56:26;95527.09;;;20.55;100.00
75438;BME280;64015;49.392;15.582;2023-07-16T03:58:51;95547.63;;;20.51;100.00
75438;BME280;64015;49.392;15.582;2023-07-16T04:01:17;95549.06;;;20.60;100.00
75438;BME280;64015;49.392;15.582;2023-07-16T04:03:42;95549.09;;;20.48;100.00
75438;BME280;64015;49.392;15.582;2023-07-16T04:06:09;95558.78;;;20.40;100.00
75438;BME280;64015;49.392;15.582;2023-07-16T04:08:35;95558.66;;;20.49;100.00
75438;BME280;64015;49.392;15.582;2023-07-16T04:11:02;95561.78;;;20.39;100.00
75438;BME280;64015;49.392;15.582;2023-07-16T04:13:28;95564.59;;;20.55;100.00
75438;BME280;64015;49.392;15.582;2023-07-16T04:15:54;95574.53;;;20.54;100.00
75438;BME280;64015;49.392;15.582;2023-07-16T04:18:30;95575.53;;;20.62;100.00
75438;BME280;64015;49.392;15.582;2023-07-16T04:20:55;95577.69;;;20.56;100.00
75438;BME280;64015;49.392;15.582;2023-07-16T04:23:22;95568.63;;;20.61;100.00
75438;BME280;64015;49.392;15.582;2023-07-16T04:25:51;95569.97;;;20.55;100.00
75438;BME280;64015;49.392;15.582;2023-07-16T04:28:18;95564.25;;;20.68;100.00
75438;BME280;64015;49.392;15.582;2023-07-16T04:30:44;95571.94;;;20.58;100.00
75438;BME280;64015;49.392;15.582;2023-07-16T04:33:09;95597.75;;;20.62;100.00
75438;BME280;64015;49.392;15.582;2023-07-16T04:35:35;95599.09;;;20.68;100.00
75438;BME280;64015;49.392;15.582;2023-07-16T04:38:01;95599.22;;;20.84;100.00
75438;BME280;64015;49.392;15.582;2023-07-16T04:40:29;95613.38;;;20.97;100.00
75438;BME280;64015;49.392;15.582;2023-07-16T04:42:54;95627.81;;;20.92;100.00
75438;BME280;64015;49.392;15.582;2023-07-16T04:45:20;95632.19;;;20.84;100.00
75438;BME280;64015;49.392;15.582;2023-07-16T04:47:46;95633.06;;;20.76;100.00
75438;BME280;64015;49.392;15.582;2023-07-16T04:50:11;95639.66;;;20.79;100.00
75438;BME280;64015;49.392;15.582;2023-07-16T04:52:37;95653.28;;;20.86;100.00
75438;BME280;64015;49.392;15.582;2023-07-16T04:55:03;95670.59;;;21.01;100.00
75438;BME280;64015;49.392;15.582;2023-07-16T04:57:29;95677.44;;;21.10;100.00
75438;BME280;64015;49.392;15.582;2023-07-16T04:59:55;95681.00;;;21.27;100.00
75438;BME280;64015;49.392;15.582;2023-07-16T05:02:21;95687.81;;;21.48;100.00
75438;BME280;64015;49.392;15.582;2023-07-16T05:04:47;95692.72;;;21.58;100.00
75438;BME280;64015;49.392;15.582;2023-07-16T05:07:15;95704.53;;;21.70;100.00
75438;BME280;64015;49.392;15.582;2023-07-16T05:09:42;95701.16;;;21.85;89.38
75438;BME280;64015;49.392;15.582;2023-07-16T05:12:08;95705.38;;;21.98;85.52
75438;BME280;64015;49.392;15.582;2023-07-16T05:14:43;95707.13;;;22.06;82.71
75438;BME280;64015;49.392;15.582;2023-07-16T05:17:10;95714.31;;;22.14;79.71
75438;BME280;64015;49.392;15.582;2023-07-16T05:19:36;95696.81;;;22.20;77.42
75438;BME280;64015;49.392;15.582;2023-07-16T05:22:02;95713.09;;;22.27;75.73
75438;BME280;64015;49.392;15.582;2023-07-16T05:24:31;95707.41;;;22.29;75.26
75438;BME280;64015;49.392;15.582;2023-07-16T05:26:59;95701.88;;;22.38;74.04
75438;BME280;64015;49.392;15.582;2023-07-16T05:29:26;95704.50;;;22.50;72.88
75438;BME280;64015;49.392;15.582;2023-07-16T05:31:52;95715.44;;;22.57;71.88
75438;BME280;64015;49.392;15.582;2023-07-16T05:34:18;95716.72;;;22.63;71.36
75438;BME280;64015;49.392;15.582;2023-07-16T05:36:43;95722.09;;;22.63;71.43
75438;BME280;64015;49.392;15.582;2023-07-16T05:39:12;95737.22;;;22.67;71.46
75438;BME280;64015;49.392;15.582;2023-07-16T05:41:41;95744.56;;;22.83;70.04
75438;BME280;64015;49.392;15.582;2023-07-16T05:44:07;95754.81;;;22.93;69.41
75438;BME280;64015;49.392;15.582;2023-07-16T05:46:33;95754.13;;;22.96;69.03
75438;BME280;64015;49.392;15.582;2023-07-16T05:48:59;95753.69;;;23.10;67.84
75438;BME280;64015;49.392;15.582;2023-07-16T05:51:25;95745.53;;;23.22;66.42
75438;BME280;64015;49.392;15.582;2023-07-16T05:53:51;95743.34;;;23.27;66.10
75438;BME280;64015;49.392;15.582;2023-07-16T05:56:16;95740.91;;;23.38;65.67
75438;BME280;64015;49.392;15.582;2023-07-16T05:58:42;95753.41;;;23.46;63.57
75438;BME280;64015;49.392;15.582;2023-07-16T06:01:08;95758.72;;;23.58;62.50
75438;BME280;64015;49.392;15.582;2023-07-16T06:03:34;95755.06;;;23.66;62.06
75438;BME280;64015;49.392;15.582;2023-07-16T06:05:59;95753.09;;;23.83;61.44
75438;BME280;64015;49.392;15.582;2023-07-16T06:08:25;95755.31;;;23.96;60.49
75438;BME280;64015;49.392;15.582;2023-07-16T06:10:51;95758.16;;;24.03;59.53
75438;BME280;64015;49.392;15.582;2023-07-16T06:13:17;95761.78;;;24.11;60.08
75438;BME280;64015;49.392;15.582;2023-07-16T06:15:43;95761.56;;;24.35;58.29
75438;BME280;64015;49.392;15.582;2023-07-16T06:18:09;95759.06;;;24.46;58.40
75438;BME280;64015;49.392;15.582;2023-07-16T06:20:38;95756.84;;;24.51;57.71
75438;BME280;64015;49.392;15.582;2023-07-16T06:23:04;95752.25;;;24.52;57.68
75438;BME280;64015;49.392;15.582;2023-07-16T06:25:29;95759.97;;;24.53;57.71
75438;BME280;64015;49.392;15.582;2023-07-16T06:27:55;95753.72;;;24.69;58.81
75438;BME280;64015;49.392;15.582;2023-07-16T06:30:21;95744.16;;;24.75;57.47
75438;BME280;64015;49.392;15.582;2023-07-16T06:32:47;95739.31;;;24.84;56.94
75438;BME280;64015;49.392;15.582;2023-07-16T06:35:12;95745.16;;;24.86;57.78
75438;BME280;64015;49.392;15.582;2023-07-16T06:37:38;95746.25;;;25.04;56.49
75438;BME280;64015;49.392;15.582;2023-07-16T06:40:04;95735.78;;;24.99;56.56
75438;BME280;64015;49.392;15.582;2023-07-16T06:42:31;95733.88;;;25.00;56.33
75438;BME280;64015;49.392;15.582;2023-07-16T06:44:56;95742.31;;;24.98;57.36
75438;BME280;64015;49.392;15.582;2023-07-16T06:47:22;95740.31;;;24.95;56.96
75438;BME280;64015;49.392;15.582;2023-07-16T06:49:48;95740.31;;;24.95;56.12
75438;BME280;64015;49.392;15.582;2023-07-16T06:52:23;95750.34;;;24.75;56.86
75438;BME280;64015;49.392;15.582;2023-07-16T06:54:56;95749.88;;;24.70;56.82
75438;BME280;64015;49.392;15.582;2023-07-16T06:57:23;95755.28;;;24.70;57.63
75438;BME280;64015;49.392;15.582;2023-07-16T06:59:49;95745.50;;;24.84;57.46
75438;BME280;64015;49.392;15.582;2023-07-16T07:02:16;95741.88;;;24.96;56.62
75438;BME280;64015;49.392;15.582;2023-07-16T07:04:42;95744.69;;;25.03;56.07
75438;BME280;64015;49.392;15.582;2023-07-16T07:07:08;95735.34;;;24.97;57.13
75438;BME280;64015;49.392;15.582;2023-07-16T07:09:34;95716.53;;;25.01;56.58
75438;BME280;64015;49.392;15.582;2023-07-16T07:12:00;95719.88;;;24.94;57.05
75438;BME280;64015;49.392;15.582;2023-07-16T07:14:25;95715.47;;;24.86;57.10
75438;BME280;64015;49.392;15.582;2023-07-16T07:16:53;95712.25;;;24.58;57.28
75438;BME280;64015;49.392;15.582;2023-07-16T07:19:19;95717.41;;;24.43;58.53
75438;BME280;64015;49.392;15.582;2023-07-16T07:21:47;95725.63;;;24.31;58.74
75438;BME280;64015;49.392;15.582;2023-07-16T07:24:13;95724.81;;;24.27;58.95
75438;BME280;64015;49.392;15.582;2023-07-16T07:26:39;95715.69;;;24.16;60.39
75438;BME280;64015;49.392;15.582;2023-07-16T07:29:04;95713.69;;;24.13;60.44
75438;BME280;64015;49.392;15.582;2023-07-16T07:31:33;95710.75;;;24.18;59.34
75438;BME280;64015;49.392;15.582;2023-07-16T07:33:59;95701.34;;;24.12;60.22
75438;BME280;64015;49.392;15.582;2023-07-16T07:36:28;95706.19;;;24.03;60.40
75438;BME280;64015;49.392;15.582;2023-07-16T07:38:53;95716.53;;;24.01;60.63
75438;BME280;64015;49.392;15.582;2023-07-16T07:41:19;95717.31;;;24.21;58.94
75438;BME280;64015;49.392;15.582;2023-07-16T07:43:45;95732.13;;;24.11;59.30
75438;BME280;64015;49.392;15.582;2023-07-16T07:46:11;95741.22;;;24.03;60.27
75438;BME280;64015;49.392;15.582;2023-07-16T07:48:37;95739.66;;;24.02;59.65
75438;BME280;64015;49.392;15.582;2023-07-16T07:51:03;95752.41;;;23.86;60.07
75438;BME280;64015;49.392;15.582;2023-07-16T07:53:28;95758.31;;;23.75;62.02
75438;BME280;64015;49.392;15.582;2023-07-16T07:55:54;95755.44;;;23.84;61.99
75438;BME280;64015;49.392;15.582;2023-07-16T07:58:20;95749.56;;;23.78;61.54
75438;BME280;64015;49.392;15.582;2023-07-16T08:00:46;95755.84;;;23.67;62.28
75438;BME280;64015;49.392;15.582;2023-07-16T08:03:12;95758.31;;;23.75;61.79
75438;BME280;64015;49.392;15.582;2023-07-16T08:05:37;95756.50;;;23.79;61.35
75438;BME280;64015;49.392;15.582;2023-07-16T08:08:03;95765.53;;;23.87;61.53
75438;BME280;64015;49.392;15.582;2023-07-16T08:10:29;95773.94;;;23.86;61.35
75438;BME280;64015;49.392;15.582;2023-07-16T08:12:55;95792.13;;;23.89;61.47
75438;BME280;64015;49.392;15.582;2023-07-16T08:15:21;95797.69;;;23.80;61.89
75438;BME280;64015;49.392;15.582;2023-07-16T08:17:46;95795.34;;;23.78;62.09
75438;BME280;64015;49.392;15.582;2023-07-16T08:20:13;95794.56;;;23.78;62.67
75438;BME280;64015;49.392;15.582;2023-07-16T08:22:39;95813.50;;;23.82;62.61
75438;BME280;64015;49.392;15.582;2023-07-16T08:25:06;95810.25;;;23.92;62.58
75438;BME280;64015;49.392;15.582;2023-07-16T08:27:32;95816.41;;;24.08;62.35
75438;BME280;64015;49.392;15.582;2023-07-16T08:29:58;95823.41;;;24.12;62.30
75438;BME280;64015;49.392;15.582;2023-07-16T08:32:23;95828.03;;;24.28;60.78
75438;BME280;64015;49.392;15.582;2023-07-16T08:34:49;95829.78;;;24.39;60.21
75438;BME280;64015;49.392;15.582;2023-07-16T08:37:15;95831.38;;;24.40;60.59
75438;BME280;64015;49.392;15.582;2023-07-16T08:39:41;95824.50;;;24.43;60.13
75438;BME280;64015;49.392;15.582;2023-07-16T08:42:09;95830.81;;;24.50;59.25
75438;BME280;64015;49.392;15.582;2023-07-16T08:44:37;95835.91;;;24.75;59.67
75438;BME280;64015;49.392;15.582;2023-07-16T08:47:05;95830.00;;;25.08;58.58
75438;BME280;64015;49.392;15.582;2023-07-16T08:49:33;95837.13;;;25.39;57.77
75438;BME280;64015;49.392;15.582;2023-07-16T08:52:01;95845.38;;;25.49;56.55
75438;BME280;64015;49.392;15.582;2023-07-16T08:54:27;95841.66;;;25.35;55.88
75438;BME280;64015;49.392;15.582;2023-07-16T08:56:53;95838.31;;;25.18;56.68
75438;BME280;64015;49.392;15.582;2023-07-16T08:59:24;95833.91;;;25.10;57.18
75438;BME280;64015;49.392;15.582;2023-07-16T09:01:50;95842.19;;;25.21;57.65
75438;BME280;64015;49.392;15.582;2023-07-16T09:04:16;95833.44;;;25.27;57.97
75438;BME280;64015;49.392;15.582;2023-07-16T09:06:42;95826.44;;;25.46;56.32
75438;BME280;64015;49.392;15.582;2023-07-16T09:09:12;95833.91;;;25.33;56.89
75438;BME280;64015;49.392;15.582;2023-07-16T09:11:48;95833.22;;;25.36;56.81
75438;BME280;64015;49.392;15.582;2023-07-16T09:14:18;95832.50;;;25.39;56.26
75438;BME280;64015;49.392;15.582;2023-07-16T09:16:50;95834.47;;;25.42;56.47
75438;BME280;64015;49.392;15.582;2023-07-16T09:19:17;95833.41;;;25.47;56.16
75438;BME280;64015;49.392;15.582;2023-07-16T09:21:51;95842.09;;;25.59;55.61
75438;BME280;64015;49.392;15.582;2023-07-16T09:24:18;95843.06;;;25.48;56.08
75438;BME280;64015;49.392;15.582;2023-07-16T09:26:51;95841.19;;;25.52;56.48
75438;BME280;64015;49.392;15.582;2023-07-16T09:29:18;95850.53;;;25.58;55.53
75438;BME280;64015;49.392;15.582;2023-07-16T09:31:58;95852.84;;;25.56;55.67
75438;BME280;64015;49.392;15.582;2023-07-16T09:34:27;95854.34;;;25.53;55.95
75438;BME280;64015;49.392;15.582;2023-07-16T09:36:53;95852.00;;;25.52;56.36
75438;BME280;64015;49.392;15.582;2023-07-16T09:39:19;95858.84;;;25.46;57.12
75438;BME280;64015;49.392;15.582;2023-07-16T09:41:49;95859.66;;;25.50;57.49
75438;BME280;64015;49.392;15.582;2023-07-16T09:44:16;95857.66;;;25.66;56.87
75438;BME280;64015;49.392;15.582;2023-07-16T09:46:42;95859.28;;;25.71;56.55
75438;BME280;64015;49.392;15.582;2023-07-16T09:49:08;95861.69;;;25.76;56.97
75438;BME280;64015;49.392;15.582;2023-07-16T09:51:35;95860.91;;;25.75;58.14
75438;BME280;64015;49.392;15.582;2023-07-16T09:54:02;95857.59;;;25.85;58.34
75438;BME280;64015;49.392;15.582;2023-07-16T09:56:37;95868.69;;;25.80;58.84
75438;BME280;64015;49.392;15.582;2023-07-16T09:59:16;95861.53;;;25.91;59.89
75438;BME280;64015;49.392;15.582;2023-07-16T10:01:42;95862.34;;;25.95;59.83
75438;BME280;64015;49.392;15.582;2023-07-16T10:12:14;95858.13;;;26.47;57.02
75438;BME280;64015;49.392;15.582;2023-07-16T10:14:47;95862.13;;;26.60;56.07
75438;BME280;64015;49.392;15.582;2023-07-16T10:17:15;95865.22;;;26.59;56.04
75438;BME280;64015;49.392;15.582;2023-07-16T10:19:51;95871.81;;;26.31;55.89
75438;BME280;64015;49.392;15.582;2023-07-16T10:22:31;95869.56;;;26.37;54.77
75438;BME280;64015;49.392;15.582;2023-07-16T10:24:57;95860.59;;;26.59;53.95
75438;BME280;64015;49.392;15.582;2023-07-16T10:27:41;95867.00;;;26.48;52.85
75438;BME280;64015;49.392;15.582;2023-07-16T10:30:07;95868.06;;;26.40;53.84
75438;BME280;64015;49.392;15.582;2023-07-16T10:32:33;95873.31;;;26.29;54.56
75438;BME280;64015;49.392;15.582;2023-07-16T10:35:00;95872.69;;;26.39;55.12
75438;BME280;64015;49.392;15.582;2023-07-16T10:37:26;95863.69;;;26.61;54.15
75438;BME280;64015;49.392;15.582;2023-07-16T10:39:56;95865.47;;;26.80;53.76
75438;BME280;64015;49.392;15.582;2023-07-16T10:42:26;95868.47;;;26.71;54.27
75438;BME280;64015;49.392;15.582;2023-07-16T10:44:57;95861.03;;;26.95;54.22
75438;BME280;64015;49.392;15.582;2023-07-16T10:47:33;95869.94;;;27.32;52.07
75438;BME280;64015;49.392;15.582;2023-07-16T10:50:02;95870.47;;;27.48;52.48
75438;BME280;64015;49.392;15.582;2023-07-16T10:52:28;95868.47;;;27.79;50.93
75438;BME280;64015;49.392;15.582;2023-07-16T10:54:54;95874.69;;;27.83;51.75
75438;BME280;64015;49.392;15.582;2023-07-16T10:57:21;95869.00;;;27.99;51.53
75438;BME280;64015;49.392;15.582;2023-07-16T10:59:47;95868.34;;;28.16;51.46
75438;BME280;64015;49.392;15.582;2023-07-16T11:02:16;95861.09;;;28.31;51.05
75438;BME280;64015;49.392;15.582;2023-07-16T11:04:45;95851.53;;;28.54;50.77
75438;BME280;64015;49.392;15.582;2023-07-16T11:07:12;95859.34;;;28.74;48.65
75438;BME280;64015;49.392;15.582;2023-07-16T11:09:42;95858.50;;;28.55;48.08
75438;BME280;64015;49.392;15.582;2023-07-16T11:12:11;95860.13;;;28.74;48.52
75438;BME280;64015;49.392;15.582;2023-07-16T11:14:38;95849.41;;;29.03;48.30
75438;BME280;64015;49.392;15.582;2023-07-16T11:17:07;95844.09;;;29.52;46.68
75438;BME280;64015;49.392;15.582;2023-07-16T11:19:37;95840.22;;;29.96;46.00
75438;BME280;64015;49.392;15.582;2023-07-16T11:22:05;95846.44;;;30.21;44.70
75438;BME280;64015;49.392;15.582;2023-07-16T11:24:45;95849.94;;;30.08;45.57
75438;BME280;64015;49.392;15.582;2023-07-16T11:27:23;95848.00;;;30.08;45.15
75438;BME280;64015;49.392;15.582;2023-07-16T11:29:53;95846.47;;;30.00;44.22
75438;BME280;64015;49.392;15.582;2023-07-16T11:32:43;95845.66;;;29.78;44.81
75438;BME280;64015;49.392;15.582;2023-07-16T11:35:16;95843.34;;;29.84;43.66
75438;BME280;64015;49.392;15.582;2023-07-16T11:37:43;95844.09;;;29.45;44.56
75438;BME280;64015;49.392;15.582;2023-07-16T11:40:10;95839.44;;;29.63;44.47
75438;BME280;64015;49.392;15.582;2023-07-16T11:42:38;95842.53;;;29.94;43.63
75438;BME280;64015;49.392;15.582;2023-07-16T11:45:14;95843.19;;;30.72;42.60
75438;BME280;64015;49.392;15.582;2023-07-16T11:47:39;95838.75;;;31.10;41.08
75438;BME280;64015;49.392;15.582;2023-07-16T11:50:05;95833.91;;;31.39;41.73
75438;BME280;64015;49.392;15.582;2023-07-16T11:52:31;95827.41;;;32.19;40.41
75438;BME280;64015;49.392;15.582;2023-07-16T11:54:58;95828.28;;;32.84;38.12
75438;BME280;64015;49.392;15.582;2023-07-16T11:57:29;95821.31;;;33.63;36.13
75438;BME280;64015;49.392;15.582;2023-07-16T11:59:57;95811.69;;;34.45;36.05
75438;BME280;64015;49.392;15.582;2023-07-16T12:02:27;95810.63;;;35.34;34.07
75438;BME280;64015;49.392;15.582;2023-07-16T12:04:56;95818.19;;;34.74;34.49
75438;BME280;64015;49.392;15.582;2023-07-16T12:07:32;95815.44;;;34.74;34.56
75438;BME280;64015;49.392;15.582;2023-07-16T12:10:00;95813.31;;;35.18;34.73
75438;BME280;64015;49.392;15.582;2023-07-16T12:12:25;95808.44;;;35.94;32.99
75438;BME280;64015;49.392;15.582;2023-07-16T12:14:51;95808.38;;;36.84;30.48
75438;BME280;64015;49.392;15.582;2023-07-16T12:17:17;95809.78;;;36.02;30.75
75438;BME280;64015;49.392;15.582;2023-07-16T12:19:43;95802.94;;;36.39;29.96
75438;BME280;64015;49.392;15.582;2023-07-16T12:22:09;95808.97;;;37.17;27.03
75438;BME280;64015;49.392;15.582;2023-07-16T12:24:35;95806.19;;;37.05;28.90
75438;BME280;64015;49.392;15.582;2023-07-16T12:27:02;95809.28;;;37.83;29.40
75438;BME280;64015;49.392;15.582;2023-07-16T12:29:34;95799.88;;;37.93;29.41
75438;BME280;64015;49.392;15.582;2023-07-16T12:32:02;95804.59;;;37.32;30.60
75438;BME280;64015;49.392;15.582;2023-07-16T12:34:28;95806.22;;;36.34;31.85
75438;BME280;64015;49.392;15.582;2023-07-16T12:36:53;95798.56;;;36.83;30.30
75438;BME280;64015;49.392;15.582;2023-07-16T12:39:21;95803.19;;;36.99;29.35
75438;BME280;64015;49.392;15.582;2023-07-16T12:41:47;95797.94;;;36.05;31.34
75438;BME280;64015;49.392;15.582;2023-07-16T12:44:13;95798.03;;;35.69;32.21
75438;BME280;64015;49.392;15.582;2023-07-16T12:46:38;95795.00;;;35.31;33.12
75438;BME280;64015;49.392;15.582;2023-07-16T12:49:04;95790.03;;;36.07;32.29
75438;BME280;64015;49.392;15.582;2023-07-16T12:51:29;95792.50;;;36.18;31.69
75438;BME280;64015;49.392;15.582;2023-07-16T12:53:55;95793.97;;;36.06;30.89
75438;BME280;64015;49.392;15.582;2023-07-16T12:56:21;95798.75;;;35.73;31.62
75438;BME280;64015;49.392;15.582;2023-07-16T12:58:47;95792.72;;;36.40;30.90
75438;BME280;64015;49.392;15.582;2023-07-16T13:01:13;95793.09;;;37.59;29.21
75438;BME280;64015;49.392;15.582;2023-07-16T13:03:39;95797.75;;;37.50;29.09